createdAt,value
2022-09-06T00:00:28.809Z,100570.00
2022-09-06T00:02:56.412Z,100580.00
2022-09-06T00:05:24.094Z,100574.00
2022-09-06T00:07:51.486Z,100576.00
2022-09-06T00:10:19.075Z,100569.00
2022-09-06T00:12:47.891Z,100578.00
2022-09-06T00:15:15.497Z,100574.00
2022-09-06T00:17:44.961Z,100580.00
2022-09-06T00:20:12.519Z,100564.00
2022-09-06T00:22:40.121Z,100571.00
2022-09-06T00:25:08.356Z,100569.00
2022-09-06T00:27:36.430Z,100570.00
2022-09-06T00:30:05.508Z,100566.00
2022-09-06T00:32:33.871Z,100562.00
2022-09-06T00:35:01.262Z,100559.00
2022-09-06T00:37:29.601Z,100557.00
2022-09-06T00:39:57.280Z,100559.00
2022-09-06T00:42:24.802Z,100560.00
2022-09-06T00:44:52.229Z,100562.00
2022-09-06T00:47:20.231Z,100567.00
2022-09-06T00:49:52.283Z,100558.00
2022-09-06T00:52:20.610Z,100554.00
2022-09-06T00:54:49.377Z,100558.00
2022-09-06T00:57:18.528Z,100561.00
2022-09-06T00:59:47.985Z,100567.00
2022-09-06T01:02:15.543Z,100570.00
2022-09-06T01:04:44.867Z,100565.00
2022-09-06T01:07:22.237Z,100570.00
2022-09-06T01:09:58.303Z,100563.00
2022-09-06T01:12:46.344Z,100568.00
2022-09-06T01:15:40.170Z,100560.00
2022-09-06T01:18:18.985Z,100560.00
2022-09-06T01:21:19.688Z,100566.00
2022-09-06T01:24:04.522Z,100559.00
2022-09-06T01:27:16.142Z,100553.00
2022-09-06T01:30:05.522Z,100558.00
2022-09-06T01:32:45.130Z,100548.00
2022-09-06T01:35:34.731Z,100538.00
2022-09-06T01:38:03.010Z,100532.00
2022-09-06T01:40:30.559Z,100525.00
2022-09-06T01:42:58.991Z,100524.00
2022-09-06T01:46:04.501Z,100520.00
2022-09-06T01:48:50.780Z,100521.00
2022-09-06T01:51:55.212Z,100517.00
2022-09-06T01:54:32.002Z,100515.00
2022-09-06T01:58:07.614Z,100514.00
2022-09-06T02:00:51.343Z,100513.00
2022-09-06T02:03:49.073Z,100513.00
2022-09-06T02:06:30.477Z,100511.00
2022-09-06T02:09:20.980Z,100510.00
2022-09-06T02:12:15.220Z,100508.00
2022-09-06T02:15:00.325Z,100498.00
2022-09-06T02:17:34.336Z,100511.00
2022-09-06T02:20:17.485Z,100507.00
2022-09-06T02:22:47.658Z,100512.00
2022-09-06T02:25:25.535Z,100505.00
2022-09-06T02:27:54.273Z,100505.00
2022-09-06T02:30:21.762Z,100510.00
2022-09-06T02:32:59.279Z,100500.00
2022-09-06T02:35:27.279Z,100495.00
2022-09-06T02:37:56.135Z,100497.00
2022-09-06T02:40:24.711Z,100501.00
2022-09-06T02:42:53.705Z,100494.00
2022-09-06T02:45:21.336Z,100491.00
2022-09-06T02:47:48.870Z,100497.00
2022-09-06T02:50:16.452Z,100489.00
2022-09-06T02:52:43.869Z,100499.00
2022-09-06T02:55:11.837Z,100494.00
2022-09-06T02:57:39.714Z,100482.00
2022-09-06T03:00:07.971Z,100482.00
2022-09-06T03:02:35.355Z,100477.00
2022-09-06T03:05:03.231Z,100474.00
2022-09-06T03:07:30.691Z,100479.00
2022-09-06T03:09:58.558Z,100476.00
2022-09-06T03:12:26.093Z,100480.00
2022-09-06T03:14:55.111Z,100473.00
2022-09-06T03:17:23.168Z,100468.00
2022-09-06T03:19:50.922Z,100468.00
2022-09-06T03:22:18.612Z,100469.00
2022-09-06T03:24:46.139Z,100471.00
2022-09-06T03:27:13.945Z,100480.00
2022-09-06T03:29:41.334Z,100474.00
2022-09-06T03:32:08.837Z,100474.00
2022-09-06T03:34:36.359Z,100473.00
2022-09-06T03:37:04.048Z,100464.00
2022-09-06T03:39:31.715Z,100472.00
2022-09-06T03:41:59.288Z,100470.00
2022-09-06T03:44:26.931Z,100475.00
2022-09-06T03:46:54.640Z,100476.00
2022-09-06T03:49:22.142Z,100480.00
2022-09-06T03:51:49.678Z,100479.00
2022-09-06T03:54:17.091Z,100482.00
2022-09-06T03:56:44.636Z,100483.00
2022-09-06T03:59:12.265Z,100485.00
2022-09-06T04:01:39.890Z,100484.00
2022-09-06T04:04:07.413Z,100486.00
2022-09-06T04:06:35.020Z,100484.00
2022-09-06T04:09:02.662Z,100474.00
2022-09-06T04:11:30.091Z,100477.00
2022-09-06T04:13:59.846Z,100480.00
2022-09-06T04:16:27.457Z,100473.00
2022-09-06T04:18:54.988Z,100469.00
2022-09-06T04:21:22.449Z,100467.00
2022-09-06T04:23:49.988Z,100473.00
2022-09-06T04:26:17.768Z,100477.00
2022-09-06T04:28:45.417Z,100473.00
2022-09-06T04:31:13.428Z,100472.00
2022-09-06T04:33:41.624Z,100481.00
2022-09-06T04:36:11.522Z,100480.00
2022-09-06T04:38:43.330Z,100479.00
2022-09-06T04:41:13.740Z,100478.00
2022-09-06T04:43:41.256Z,100485.00
2022-09-06T04:46:24.212Z,100482.00
2022-09-06T04:48:54.033Z,100477.00
2022-09-06T04:51:22.993Z,100476.00
2022-09-06T04:53:51.010Z,100473.00
2022-09-06T04:56:24.249Z,100473.00
2022-09-06T04:58:54.186Z,100475.00
2022-09-06T05:01:22.277Z,100478.00
2022-09-06T05:03:51.516Z,100476.00
2022-09-06T05:06:24.103Z,100475.00
2022-09-06T05:08:52.105Z,100482.00
2022-09-06T05:11:20.145Z,100474.00
2022-09-06T05:13:48.134Z,100475.00
2022-09-06T05:16:15.666Z,100477.00
2022-09-06T05:18:44.539Z,100475.00
2022-09-06T05:21:12.113Z,100466.00
2022-09-06T05:23:39.617Z,100476.00
2022-09-06T05:26:07.040Z,100476.00
2022-09-06T05:28:34.552Z,100477.00
2022-09-06T05:31:09.825Z,100477.00
2022-09-06T05:33:37.514Z,100485.00
2022-09-06T05:36:06.283Z,100476.00
2022-09-06T05:38:34.045Z,100483.00
2022-09-06T05:41:01.670Z,100482.00
2022-09-06T05:43:29.300Z,100482.00
2022-09-06T05:45:57.132Z,100487.00
2022-09-06T05:48:24.576Z,100486.00
2022-09-06T05:51:07.511Z,100477.00
2022-09-06T05:53:45.934Z,100477.00
2022-09-06T05:56:14.930Z,100479.00
2022-09-06T05:58:42.548Z,100473.00
2022-09-06T06:01:28.558Z,100482.00
2022-09-06T06:04:05.200Z,100478.00
2022-09-06T06:06:34.888Z,100477.00
2022-09-06T06:09:02.965Z,100475.00
2022-09-06T06:11:31.981Z,100484.00
2022-09-06T06:13:59.640Z,100473.00
2022-09-06T06:16:27.247Z,100481.00
2022-09-06T06:18:55.198Z,100473.00
2022-09-06T06:21:24.857Z,100474.00
2022-09-06T06:23:58.377Z,100472.00
2022-09-06T06:26:27.840Z,100472.00
2022-09-06T06:28:57.977Z,100480.00
2022-09-06T06:31:25.769Z,100481.00
2022-09-06T06:33:53.267Z,100477.00
2022-09-06T06:36:27.221Z,100480.00
2022-09-06T06:38:56.149Z,100483.00
2022-09-06T06:41:26.808Z,100486.00
2022-09-06T06:44:03.793Z,100477.00
2022-09-06T06:46:37.427Z,100478.00
2022-09-06T06:49:05.502Z,100481.00
2022-09-06T06:51:37.228Z,100481.00
2022-09-06T06:54:05.936Z,100491.00
2022-09-06T06:56:41.016Z,100486.00
2022-09-06T06:59:08.705Z,100479.00
2022-09-06T07:01:37.242Z,100483.00
2022-09-06T07:04:05.789Z,100476.00
2022-09-06T07:12:27.202Z,100474.00
2022-09-06T07:14:54.832Z,100464.00
2022-09-06T07:17:22.339Z,100461.00
2022-09-06T07:22:38.139Z,100465.00
2022-09-06T07:25:06.425Z,100454.00
2022-09-06T07:27:50.135Z,100455.00
2022-09-06T07:30:20.177Z,100453.00
2022-09-06T07:32:48.648Z,100452.00
2022-09-06T07:35:16.397Z,100459.00
2022-09-06T07:37:43.863Z,100457.00
2022-09-06T07:40:11.845Z,100458.00
2022-09-06T07:42:39.158Z,100473.00
2022-09-06T07:45:07.181Z,100463.00
2022-09-06T07:53:15.072Z,100455.00
2022-09-06T07:55:46.863Z,100454.00
2022-09-06T07:58:14.384Z,100451.00
2022-09-06T08:00:42.645Z,100448.00
2022-09-06T08:03:10.532Z,100443.00
2022-09-06T08:11:14.661Z,100451.00
2022-09-06T08:13:42.692Z,100447.00
2022-09-06T08:16:12.771Z,100439.00
2022-09-06T08:18:40.581Z,100434.00
2022-09-06T08:21:16.617Z,100441.00
2022-09-06T08:24:00.120Z,100452.00
2022-09-06T08:26:29.185Z,100453.00
2022-09-06T08:29:06.876Z,100451.00
2022-09-06T08:31:37.100Z,100457.00
2022-09-06T08:34:04.839Z,100455.00
2022-09-06T08:36:33.307Z,100455.00
2022-09-06T08:39:04.023Z,100459.00
2022-09-06T08:41:51.611Z,100458.00
2022-09-06T08:47:21.865Z,100467.00
2022-09-06T08:49:54.944Z,100473.00
2022-09-06T08:53:16.230Z,100477.00
2022-09-06T08:56:03.086Z,100484.00
2022-09-06T08:58:40.885Z,100491.00
2022-09-06T09:01:18.312Z,100496.00
2022-09-06T09:03:47.344Z,100485.00
2022-09-06T09:06:14.827Z,100476.00
2022-09-06T09:09:02.159Z,100469.00
2022-09-06T09:11:33.658Z,100474.00
2022-09-06T09:14:19.372Z,100474.00
2022-09-06T09:16:51.908Z,100457.00
2022-09-06T09:19:19.529Z,100471.00
2022-09-06T09:21:47.321Z,100472.00
2022-09-06T09:24:16.297Z,100464.00
2022-09-06T09:26:53.096Z,100464.00
2022-09-06T09:29:25.362Z,100457.00
2022-09-06T09:31:56.495Z,100455.00
2022-09-06T09:34:39.945Z,100447.00
2022-09-06T09:40:40.085Z,100439.00
2022-09-06T09:43:15.441Z,100428.00
2022-09-06T09:45:45.431Z,100423.00
2022-09-06T09:48:23.824Z,100423.00
2022-09-06T09:50:51.226Z,100411.00
2022-09-06T09:53:22.494Z,100410.00
2022-09-06T09:55:57.002Z,100408.00
2022-09-06T09:58:34.041Z,100410.00
2022-09-06T10:01:16.574Z,100407.00
2022-09-06T10:09:23.525Z,100391.00
2022-09-06T10:11:58.678Z,100383.00
2022-09-06T10:14:48.459Z,100378.00
2022-09-06T10:17:31.093Z,100383.00
2022-09-06T10:20:12.881Z,100376.00
2022-09-06T10:23:07.801Z,100382.00
2022-09-06T10:25:51.684Z,100369.00
2022-09-06T10:28:25.147Z,100362.00
2022-09-06T10:31:18.935Z,100358.00
2022-09-06T10:34:20.120Z,100361.00
2022-09-06T10:37:08.169Z,100359.00
2022-09-06T10:39:53.817Z,100363.00
2022-09-06T10:43:00.054Z,100362.00
2022-09-06T10:45:37.706Z,100356.00
2022-09-06T10:48:39.190Z,100358.00
2022-09-06T10:52:02.113Z,100355.00
2022-09-06T10:54:32.955Z,100354.00
2022-09-06T11:00:14.815Z,100358.00
2022-09-06T11:06:21.207Z,100361.00
2022-09-06T11:09:28.279Z,100368.00
2022-09-06T11:12:16.074Z,100362.00
2022-09-06T11:14:43.523Z,100364.00
2022-09-06T11:17:32.484Z,100367.00
2022-09-06T11:20:32.421Z,100363.00
2022-09-06T11:23:17.650Z,100355.00
2022-09-06T11:26:17.235Z,100371.00
2022-09-06T11:28:58.534Z,100370.00
2022-09-06T11:32:20.849Z,100372.00
2022-09-06T11:34:58.570Z,100366.00
2022-09-06T11:37:34.699Z,100373.00
2022-09-06T11:42:55.739Z,100368.00
2022-09-06T11:45:51.252Z,100369.00
2022-09-06T11:48:24.773Z,100362.00
2022-09-06T11:51:00.577Z,100356.00
2022-09-06T11:53:35.285Z,100357.00
2022-09-06T11:56:02.586Z,100352.00
2022-09-06T11:58:42.185Z,100340.00
2022-09-06T12:01:16.776Z,100345.00
2022-09-06T12:04:06.533Z,100349.00
2022-09-06T12:06:40.230Z,100349.00
2022-09-06T12:09:46.737Z,100343.00
2022-09-06T12:12:46.943Z,100339.00
2022-09-06T12:15:30.649Z,100336.00
2022-09-06T12:18:00.535Z,100335.00
2022-09-06T12:20:51.427Z,100334.00
2022-09-06T12:23:36.981Z,100338.00
2022-09-06T12:26:12.536Z,100333.00
2022-09-06T12:28:52.920Z,100333.00
2022-09-06T12:31:33.370Z,100325.00
2022-09-06T12:34:13.740Z,100326.00
2022-09-06T12:37:10.742Z,100326.00
2022-09-06T12:39:38.559Z,100321.00
2022-09-06T12:42:11.724Z,100315.00
2022-09-06T12:44:52.384Z,100312.00
2022-09-06T12:47:34.104Z,100313.00
2022-09-06T12:50:10.388Z,100318.00
2022-09-06T12:53:00.365Z,100311.00
2022-09-06T12:55:37.911Z,100302.00
2022-09-06T12:58:11.733Z,100306.00
2022-09-06T13:00:51.796Z,100299.00
2022-09-06T13:03:49.596Z,100290.00
2022-09-06T13:06:26.583Z,100294.00
2022-09-06T13:08:57.548Z,100297.00
2022-09-06T13:11:42.096Z,100291.00
2022-09-06T13:14:21.372Z,100288.00
2022-09-06T13:16:52.068Z,100279.00
2022-09-06T13:19:38.443Z,100275.00
2022-09-06T13:22:09.065Z,100273.00
2022-09-06T13:24:36.977Z,100276.00
2022-09-06T13:27:30.555Z,100276.00
2022-09-06T13:30:10.661Z,100270.00
2022-09-06T13:32:47.734Z,100256.00
2022-09-06T13:35:25.601Z,100264.00
2022-09-06T13:37:53.252Z,100261.00
2022-09-06T13:41:09.784Z,100260.00
2022-09-06T13:43:34.767Z,100258.00
2022-09-06T13:46:08.183Z,100250.00
2022-09-06T13:48:36.178Z,100255.00
2022-09-06T13:51:06.984Z,100251.00
2022-09-06T13:53:35.703Z,100252.00
2022-09-06T13:56:05.274Z,100248.00
2022-09-06T13:58:32.913Z,100250.00
2022-09-06T14:01:00.461Z,100247.00
2022-09-06T14:03:31.329Z,100247.00
2022-09-06T14:06:02.760Z,100244.00
2022-09-06T14:08:43.805Z,100241.00
2022-09-06T14:11:19.053Z,100237.00
2022-09-06T14:13:46.846Z,100238.00
2022-09-06T14:16:14.573Z,100239.00
2022-09-06T14:18:42.394Z,100229.00
2022-09-06T14:21:09.990Z,100231.00
2022-09-06T14:23:37.536Z,100225.00
2022-09-06T14:26:05.956Z,100229.00
2022-09-06T14:28:34.736Z,100227.00
2022-09-06T14:31:20.841Z,100223.00
2022-09-06T14:33:49.338Z,100225.00
2022-09-06T14:36:21.100Z,100223.00
2022-09-06T14:38:49.901Z,100217.00
2022-09-06T14:41:19.939Z,100231.00
2022-09-06T14:43:54.570Z,100219.00
2022-09-06T14:46:23.863Z,100217.00
2022-09-06T14:49:07.564Z,100219.00
2022-09-06T14:51:37.049Z,100214.00
2022-09-06T14:54:10.382Z,100224.00
2022-09-06T14:56:40.487Z,100217.00
2022-09-06T14:59:09.380Z,100221.00
2022-09-06T15:01:38.725Z,100218.00
2022-09-06T15:04:09.874Z,100211.00
2022-09-06T15:06:40.469Z,100210.00
2022-09-06T15:09:08.692Z,100206.00
2022-09-06T15:11:43.486Z,100201.00
2022-09-06T15:14:19.970Z,100204.00
2022-09-06T15:16:53.327Z,100199.00
2022-09-06T15:19:24.930Z,100189.00
2022-09-06T15:21:52.615Z,100187.00
2022-09-06T15:24:21.145Z,100186.00
2022-09-06T15:26:49.022Z,100186.00
2022-09-06T15:29:17.318Z,100185.00
2022-09-06T15:31:50.395Z,100187.00
2022-09-06T15:34:20.627Z,100201.00
2022-09-06T15:36:48.550Z,100196.00
2022-09-06T15:39:16.456Z,100200.00
2022-09-06T15:41:44.693Z,100193.00
2022-09-06T15:44:15.539Z,100198.00
2022-09-06T15:46:49.386Z,100193.00
2022-09-06T15:49:27.836Z,100197.00
2022-09-06T15:51:58.472Z,100188.00
2022-09-06T15:54:45.023Z,100197.00
2022-09-06T15:57:13.997Z,100200.00
2022-09-06T15:59:41.523Z,100190.00
2022-09-06T16:02:09.939Z,100190.00
2022-09-06T16:04:38.158Z,100190.00
2022-09-06T16:07:06.351Z,100190.00
2022-09-06T16:09:34.011Z,100190.00
2022-09-06T16:12:01.713Z,100185.00
2022-09-06T16:14:29.681Z,100183.00
2022-09-06T16:16:57.691Z,100173.00
2022-09-06T16:19:26.371Z,100182.00
2022-09-06T16:21:54.110Z,100175.00
2022-09-06T16:24:21.583Z,100172.00
2022-09-06T16:26:49.250Z,100178.00
2022-09-06T16:29:18.512Z,100171.00
2022-09-06T16:31:48.789Z,100168.00
2022-09-06T16:34:16.842Z,100165.00
2022-09-06T16:36:44.557Z,100170.00
2022-09-06T16:39:12.119Z,100164.00
2022-09-06T16:41:45.105Z,100160.00
2022-09-06T16:44:17.466Z,100161.00
2022-09-06T16:46:47.909Z,100153.00
2022-09-06T16:49:17.518Z,100145.00
2022-09-06T16:51:46.269Z,100154.00
2022-09-06T16:54:15.817Z,100138.00
2022-09-06T16:56:44.331Z,100147.00
2022-09-06T16:59:13.130Z,100155.00
2022-09-06T17:01:42.030Z,100147.00
2022-09-06T17:04:10.505Z,100147.00
2022-09-06T17:06:47.558Z,100147.00
2022-09-06T17:09:21.165Z,100143.00
2022-09-06T17:11:50.458Z,100147.00
2022-09-06T17:14:18.898Z,100151.00
2022-09-06T17:17:05.255Z,100150.00
2022-09-06T17:19:38.413Z,100151.00
2022-09-06T17:22:06.559Z,100155.00
2022-09-06T17:24:34.774Z,100147.00
2022-09-06T17:27:02.256Z,100151.00
2022-09-06T17:29:30.086Z,100143.00
2022-09-06T17:31:58.131Z,100151.00
2022-09-06T17:34:26.500Z,100151.00
2022-09-06T17:36:54.068Z,100144.00
2022-09-06T17:39:22.205Z,100155.00
2022-09-06T17:41:54.550Z,100156.00
2022-09-06T17:44:25.591Z,100160.00
2022-09-06T17:47:12.109Z,100162.00
2022-09-06T17:49:40.435Z,100161.00
2022-09-06T17:52:08.029Z,100167.00
2022-09-06T17:54:35.618Z,100168.00
2022-09-06T17:57:03.011Z,100176.00
2022-09-06T17:59:34.998Z,100169.00
2022-09-06T18:02:03.775Z,100179.00
2022-09-06T18:04:31.338Z,100179.00
2022-09-06T18:06:58.936Z,100180.00
2022-09-06T18:09:26.554Z,100184.00
2022-09-06T18:11:54.302Z,100183.00
2022-09-06T18:14:21.724Z,100186.00
2022-09-06T18:16:52.179Z,100192.00
2022-09-06T18:19:20.244Z,100195.00
2022-09-06T18:21:49.210Z,100189.00
2022-09-06T18:24:17.242Z,100188.00
2022-09-06T18:26:45.138Z,100191.00
2022-09-06T18:29:16.735Z,100197.00
2022-09-06T18:31:44.907Z,100191.00
2022-09-06T18:34:12.810Z,100192.00
2022-09-06T18:36:41.025Z,100196.00
2022-09-06T18:39:08.938Z,100197.00
2022-09-06T18:41:54.945Z,100203.00
2022-09-06T18:44:23.640Z,100200.00
2022-09-06T18:46:55.897Z,100206.00
2022-09-06T18:49:23.472Z,100205.00
2022-09-06T18:51:51.202Z,100209.00
2022-09-06T18:54:18.901Z,100204.00
2022-09-06T18:56:46.947Z,100216.00
2022-09-06T18:59:14.818Z,100210.00
2022-09-06T19:01:43.367Z,100211.00
2022-09-06T19:04:12.606Z,100210.00
2022-09-06T19:06:43.557Z,100206.00
2022-09-06T19:09:15.754Z,100204.00
2022-09-06T19:11:45.926Z,100208.00
2022-09-06T19:14:14.611Z,100209.00
2022-09-06T19:16:42.437Z,100213.00
2022-09-06T19:19:12.074Z,100213.00
2022-09-06T19:21:42.202Z,100206.00
2022-09-06T19:24:12.828Z,100205.00
2022-09-06T19:26:43.737Z,100205.00
2022-09-06T19:29:19.074Z,100202.00
2022-09-06T19:31:47.585Z,100194.00
2022-09-06T19:34:16.029Z,100199.00
2022-09-06T19:36:45.067Z,100194.00
2022-09-06T19:39:16.431Z,100198.00
2022-09-06T19:41:46.928Z,100190.00
2022-09-06T19:44:16.782Z,100188.00
2022-09-06T19:46:47.222Z,100184.00
2022-09-06T19:49:19.842Z,100186.00
2022-09-06T19:51:49.026Z,100186.00
2022-09-06T19:54:17.490Z,100183.00
2022-09-06T19:56:48.917Z,100179.00
2022-09-06T19:59:17.956Z,100191.00
2022-09-06T20:01:47.397Z,100186.00
2022-09-06T20:04:16.120Z,100192.00
2022-09-06T20:06:43.976Z,100180.00
2022-09-06T20:09:12.389Z,100178.00
2022-09-06T20:11:41.841Z,100181.00
2022-09-06T20:14:11.963Z,100185.00
2022-09-06T20:16:42.146Z,100190.00
2022-09-06T20:19:12.359Z,100192.00
2022-09-06T20:21:39.940Z,100186.00
2022-09-06T20:24:07.958Z,100183.00
2022-09-06T20:26:35.681Z,100185.00
2022-09-06T20:29:05.279Z,100181.00
2022-09-06T20:31:34.775Z,100178.00
2022-09-06T20:34:04.684Z,100161.00
2022-09-06T20:36:32.281Z,100172.00
2022-09-06T20:38:59.915Z,100170.00
2022-09-06T20:41:28.076Z,100175.00
2022-09-06T20:43:58.102Z,100172.00
2022-09-06T20:46:29.123Z,100166.00
2022-09-06T20:48:59.978Z,100162.00
2022-09-06T20:51:27.601Z,100161.00
2022-09-06T20:53:58.037Z,100156.00
2022-09-06T20:56:29.767Z,100151.00
2022-09-06T20:59:04.335Z,100151.00
2022-09-06T21:01:44.792Z,100154.00
2022-09-06T21:04:15.947Z,100146.00
2022-09-06T21:06:43.729Z,100151.00
2022-09-06T21:09:14.702Z,100147.00
2022-09-06T21:11:43.817Z,100143.00
2022-09-06T21:14:12.749Z,100138.00
2022-09-06T21:16:40.953Z,100128.00
2022-09-06T21:19:11.307Z,100140.00
2022-09-06T21:21:40.058Z,100133.00
2022-09-06T21:24:09.749Z,100133.00
2022-09-06T21:26:37.977Z,100131.00
2022-09-06T21:29:06.015Z,100128.00
2022-09-06T21:31:36.345Z,100125.00
2022-09-06T21:34:08.523Z,100126.00
2022-09-06T21:36:39.657Z,100122.00
2022-09-06T21:39:10.146Z,100123.00
2022-09-06T21:41:40.615Z,100128.00
2022-09-06T21:44:09.641Z,100133.00
2022-09-06T21:46:39.662Z,100136.00
2022-09-06T21:49:11.195Z,100138.00
2022-09-06T21:51:38.957Z,100145.00
2022-09-06T21:54:07.289Z,100150.00
2022-09-06T21:56:37.123Z,100155.00
2022-09-06T21:59:06.307Z,100144.00
2022-09-06T22:01:36.456Z,100156.00
2022-09-06T22:04:06.197Z,100152.00
2022-09-06T22:06:35.491Z,100149.00
2022-09-06T22:09:13.572Z,100140.00
2022-09-06T22:11:44.235Z,100138.00
2022-09-06T22:14:14.825Z,100132.00
2022-09-06T22:16:42.713Z,100137.00
2022-09-06T22:19:11.706Z,100141.00
2022-09-06T22:21:39.877Z,100137.00
2022-09-06T22:24:12.828Z,100131.00
2022-09-06T22:26:41.919Z,100130.00
2022-09-06T22:29:12.508Z,100127.00
2022-09-06T22:31:40.472Z,100121.00
2022-09-06T22:34:08.682Z,100123.00
2022-09-06T22:36:36.436Z,100126.00
2022-09-06T22:39:04.198Z,100122.00
2022-09-06T22:41:34.189Z,100119.00
2022-09-06T22:44:02.685Z,100111.00
2022-09-06T22:46:30.617Z,100109.00
2022-09-06T22:48:59.152Z,100108.00
2022-09-06T22:51:26.722Z,100104.00
2022-09-06T22:53:54.228Z,100105.00
2022-09-06T22:56:21.908Z,100101.00
2022-09-06T22:58:50.060Z,100099.00
2022-09-06T23:01:18.310Z,100103.00
2022-09-06T23:03:47.136Z,100103.00
2022-09-06T23:06:14.590Z,100099.00
2022-09-06T23:08:42.442Z,100092.00
2022-09-06T23:11:13.755Z,100080.00
2022-09-06T23:13:44.160Z,100080.00
2022-09-06T23:16:19.537Z,100081.00
2022-09-06T23:18:47.934Z,100078.00
2022-09-06T23:21:20.078Z,100075.00
2022-09-06T23:23:50.246Z,100068.00
2022-09-06T23:26:25.084Z,100073.00
2022-09-06T23:28:56.899Z,100063.00
2022-09-06T23:31:27.518Z,100055.00
2022-09-06T23:33:57.590Z,100052.00
2022-09-06T23:36:25.548Z,100050.00
2022-09-06T23:38:53.502Z,100053.00
2022-09-06T23:41:21.082Z,100061.00
2022-09-06T23:43:48.676Z,100043.00
2022-09-06T23:46:16.598Z,100040.00
2022-09-06T23:48:44.138Z,100046.00
2022-09-06T23:51:12.630Z,100037.00
2022-09-06T23:53:41.776Z,100032.00
2022-09-06T23:56:10.231Z,100029.00
2022-09-06T23:58:38.659Z,100034.00
